sensor_id;sensor_type;location;lat;lon;timestamp;temperature;humidity
2409;DHT22;8463;48.094;7.970;2024-03-22T00:00:47;11.90;1.00
2409;DHT22;8463;48.094;7.970;2024-03-22T00:03:12;11.90;1.00
2409;DHT22;8463;48.094;7.970;2024-03-22T00:05:38;11.80;1.00
2409;DHT22;8463;48.094;7.970;2024-03-22T00:08:04;11.90;1.00
2409;DHT22;8463;48.094;7.970;2024-03-22T00:10:29;11.90;1.00
2409;DHT22;8463;48.094;7.970;2024-03-22T00:12:55;11.90;1.00
2409;DHT22;8463;48.094;7.970;2024-03-22T00:15:21;11.90;1.00
2409;DHT22;8463;48.094;7.970;2024-03-22T00:17:46;11.90;1.00
2409;DHT22;8463;48.094;7.970;2024-03-22T00:20:12;11.90;1.00
2409;DHT22;8463;48.094;7.970;2024-03-22T00:22:37;11.70;1.00
2409;DHT22;8463;48.094;7.970;2024-03-22T00:25:03;11.70;1.00
2409;DHT22;8463;48.094;7.970;2024-03-22T00:27:30;11.60;1.00
2409;DHT22;8463;48.094;7.970;2024-03-22T00:29:55;11.60;1.00
2409;DHT22;8463;48.094;7.970;2024-03-22T00:32:21;11.50;1.00
2409;DHT22;8463;48.094;7.970;2024-03-22T00:34:46;11.40;1.00
2409;DHT22;8463;48.094;7.970;2024-03-22T00:37:12;11.40;1.00
2409;DHT22;8463;48.094;7.970;2024-03-22T00:39:38;11.40;1.00
2409;DHT22;8463;48.094;7.970;2024-03-22T00:42:03;11.50;1.00
2409;DHT22;8463;48.094;7.970;2024-03-22T00:44:29;11.50;1.00
2409;DHT22;8463;48.094;7.970;2024-03-22T00:46:55;11.50;1.00
2409;DHT22;8463;48.094;7.970;2024-03-22T00:49:20;12.50;1.00
2409;DHT22;8463;48.094;7.970;2024-03-22T00:51:46;12.80;1.00
2409;DHT22;8463;48.094;7.970;2024-03-22T00:54:13;11.40;1.00
2409;DHT22;8463;48.094;7.970;2024-03-22T00:56:38;11.40;1.00
2409;DHT22;8463;48.094;7.970;2024-03-22T00:59:04;11.50;1.00
2409;DHT22;8463;48.094;7.970;2024-03-22T01:01:29;11.50;1.00
2409;DHT22;8463;48.094;7.970;2024-03-22T01:03:55;11.60;1.00
2409;DHT22;8463;48.094;7.970;2024-03-22T01:06:21;11.60;1.00
2409;DHT22;8463;48.094;7.970;2024-03-22T01:08:50;11.70;1.00
2409;DHT22;8463;48.094;7.970;2024-03-22T01:11:17;11.70;1.00
2409;DHT22;8463;48.094;7.970;2024-03-22T01:13:42;11.70;1.00
2409;DHT22;8463;48.094;7.970;2024-03-22T01:16:08;11.70;1.00
2409;DHT22;8463;48.094;7.970;2024-03-22T01:18:38;11.60;1.00
2409;DHT22;8463;48.094;7.970;2024-03-22T01:21:04;11.60;1.00
2409;DHT22;8463;48.094;7.970;2024-03-22T01:23:30;11.50;1.00
2409;DHT22;8463;48.094;7.970;2024-03-22T01:25:56;11.50;1.00
2409;DHT22;8463;48.094;7.970;2024-03-22T01:28:22;11.50;1.00
2409;DHT22;8463;48.094;7.970;2024-03-22T01:30:48;11.60;1.00
2409;DHT22;8463;48.094;7.970;2024-03-22T01:33:13;11.60;1.00
2409;DHT22;8463;48.094;7.970;2024-03-22T01:35:39;11.70;1.00
2409;DHT22;8463;48.094;7.970;2024-03-22T01:38:05;11.70;1.00
2409;DHT22;8463;48.094;7.970;2024-03-22T01:40:30;11.70;1.00
2409;DHT22;8463;48.094;7.970;2024-03-22T01:42:57;11.80;1.00
2409;DHT22;8463;48.094;7.970;2024-03-22T01:45:23;11.60;1.00
2409;DHT22;8463;48.094;7.970;2024-03-22T01:47:51;11.60;1.00
2409;DHT22;8463;48.094;7.970;2024-03-22T01:50:17;11.60;1.00
2409;DHT22;8463;48.094;7.970;2024-03-22T01:52:43;11.50;1.00
2409;DHT22;8463;48.094;7.970;2024-03-22T01:55:08;11.50;1.00
2409;DHT22;8463;48.094;7.970;2024-03-22T01:57:34;11.50;1.00
2409;DHT22;8463;48.094;7.970;2024-03-22T02:00:01;11.60;1.00
2409;DHT22;8463;48.094;7.970;2024-03-22T02:02:27;11.60;1.00
2409;DHT22;8463;48.094;7.970;2024-03-22T02:04:52;11.60;1.00
2409;DHT22;8463;48.094;7.970;2024-03-22T02:07:18;11.60;1.00
2409;DHT22;8463;48.094;7.970;2024-03-22T02:09:44;11.60;1.00
2409;DHT22;8463;48.094;7.970;2024-03-22T02:12:10;11.60;1.00
2409;DHT22;8463;48.094;7.970;2024-03-22T02:14:36;11.50;1.00
2409;DHT22;8463;48.094;7.970;2024-03-22T02:17:01;11.50;1.00
2409;DHT22;8463;48.094;7.970;2024-03-22T02:19:27;11.40;1.00
2409;DHT22;8463;48.094;7.970;2024-03-22T02:21:52;11.50;1.00
2409;DHT22;8463;48.094;7.970;2024-03-22T02:24:18;11.60;1.00
2409;DHT22;8463;48.094;7.970;2024-03-22T02:26:44;11.50;1.00
2409;DHT22;8463;48.094;7.970;2024-03-22T02:29:09;11.50;1.00
2409;DHT22;8463;48.094;7.970;2024-03-22T02:31:35;11.40;1.00
2409;DHT22;8463;48.094;7.970;2024-03-22T02:34:00;11.30;1.00
2409;DHT22;8463;48.094;7.970;2024-03-22T02:36:27;11.30;1.00
2409;DHT22;8463;48.094;7.970;2024-03-22T02:38:53;11.20;1.00
2409;DHT22;8463;48.094;7.970;2024-03-22T02:41:19;11.00;1.00
2409;DHT22;8463;48.094;7.970;2024-03-22T02:43:44;11.00;1.00
2409;DHT22;8463;48.094;7.970;2024-03-22T02:46:10;10.90;1.00
2409;DHT22;8463;48.094;7.970;2024-03-22T02:48:35;10.90;1.00
2409;DHT22;8463;48.094;7.970;2024-03-22T02:51:01;11.00;1.00
2409;DHT22;8463;48.094;7.970;2024-03-22T02:53:27;11.10;1.00
2409;DHT22;8463;48.094;7.970;2024-03-22T02:55:53;10.90;1.00
2409;DHT22;8463;48.094;7.970;2024-03-22T02:58:20;10.90;1.00
2409;DHT22;8463;48.094;7.970;2024-03-22T03:00:46;11.00;1.00
2409;DHT22;8463;48.094;7.970;2024-03-22T03:03:11;11.00;1.00
2409;DHT22;8463;48.094;7.970;2024-03-22T03:05:37;11.00;1.00
2409;DHT22;8463;48.094;7.970;2024-03-22T03:08:03;11.20;1.00
2409;DHT22;8463;48.094;7.970;2024-03-22T03:10:29;11.20;1.00
2409;DHT22;8463;48.094;7.970;2024-03-22T03:12:55;11.30;1.00
2409;DHT22;8463;48.094;7.970;2024-03-22T03:15:21;11.40;1.00
2409;DHT22;8463;48.094;7.970;2024-03-22T03:17:46;11.40;1.00
2409;DHT22;8463;48.094;7.970;2024-03-22T03:20:12;11.50;1.00
2409;DHT22;8463;48.094;7.970;2024-03-22T03:22:42;11.50;1.00
2409;DHT22;8463;48.094;7.970;2024-03-22T03:25:08;11.50;1.00
2409;DHT22;8463;48.094;7.970;2024-03-22T03:27:34;11.40;1.00
2409;DHT22;8463;48.094;7.970;2024-03-22T03:30:00;11.40;1.00
2409;DHT22;8463;48.094;7.970;2024-03-22T03:32:26;11.30;1.00
2409;DHT22;8463;48.094;7.970;2024-03-22T03:34:52;11.10;1.00
2409;DHT22;8463;48.094;7.970;2024-03-22T03:37:17;11.00;1.00
2409;DHT22;8463;48.094;7.970;2024-03-22T03:39:43;11.00;1.00
2409;DHT22;8463;48.094;7.970;2024-03-22T03:42:10;11.20;1.00
2409;DHT22;8463;48.094;7.970;2024-03-22T03:44:35;11.10;1.00
2409;DHT22;8463;48.094;7.970;2024-03-22T03:47:01;11.00;1.00
2409;DHT22;8463;48.094;7.970;2024-03-22T03:49:27;10.90;1.00
2409;DHT22;8463;48.094;7.970;2024-03-22T03:51:53;10.80;1.00
2409;DHT22;8463;48.094;7.970;2024-03-22T03:54:18;10.80;1.00
2409;DHT22;8463;48.094;7.970;2024-03-22T03:56:44;10.90;1.00
2409;DHT22;8463;48.094;7.970;2024-03-22T03:59:10;11.00;1.00
2409;DHT22;8463;48.094;7.970;2024-03-22T04:01:35;11.00;1.00
2409;DHT22;8463;48.094;7.970;2024-03-22T04:04:02;11.00;1.00
2409;DHT22;8463;48.094;7.970;2024-03-22T04:06:31;11.10;1.00
2409;DHT22;8463;48.094;7.970;2024-03-22T04:08:56;11.20;1.00
2409;DHT22;8463;48.094;7.970;2024-03-22T04:11:23;11.20;1.00
2409;DHT22;8463;48.094;7.970;2024-03-22T04:13:48;11.30;1.00
2409;DHT22;8463;48.094;7.970;2024-03-22T04:16:14;11.30;1.00
2409;DHT22;8463;48.094;7.970;2024-03-22T04:18:39;11.30;1.00
2409;DHT22;8463;48.094;7.970;2024-03-22T04:21:05;11.30;1.00
2409;DHT22;8463;48.094;7.970;2024-03-22T04:23:31;11.30;1.00
2409;DHT22;8463;48.094;7.970;2024-03-22T04:26:00;11.20;1.00
2409;DHT22;8463;48.094;7.970;2024-03-22T04:28:27;11.20;1.00
2409;DHT22;8463;48.094;7.970;2024-03-22T04:33:25;11.20;1.00
2409;DHT22;8463;48.094;7.970;2024-03-22T04:35:51;11.30;1.00
2409;DHT22;8463;48.094;7.970;2024-03-22T04:38:16;11.30;1.00
2409;DHT22;8463;48.094;7.970;2024-03-22T04:40:42;11.30;1.00
2409;DHT22;8463;48.094;7.970;2024-03-22T04:43:08;11.30;1.00
2409;DHT22;8463;48.094;7.970;2024-03-22T04:45:34;11.40;1.00
2409;DHT22;8463;48.094;7.970;2024-03-22T04:48:04;11.40;1.00
2409;DHT22;8463;48.094;7.970;2024-03-22T04:50:30;11.40;1.00
2409;DHT22;8463;48.094;7.970;2024-03-22T04:52:57;11.40;1.00
2409;DHT22;8463;48.094;7.970;2024-03-22T04:55:23;11.40;1.00
2409;DHT22;8463;48.094;7.970;2024-03-22T04:57:49;11.40;1.00
2409;DHT22;8463;48.094;7.970;2024-03-22T05:00:15;11.40;1.00
2409;DHT22;8463;48.094;7.970;2024-03-22T05:02:40;11.30;1.00
2409;DHT22;8463;48.094;7.970;2024-03-22T05:05:06;11.30;1.00
2409;DHT22;8463;48.094;7.970;2024-03-22T05:07:33;11.30;1.00
2409;DHT22;8463;48.094;7.970;2024-03-22T05:09:59;11.40;1.00
2409;DHT22;8463;48.094;7.970;2024-03-22T05:12:24;11.30;1.00
2409;DHT22;8463;48.094;7.970;2024-03-22T05:14:50;11.30;1.00
2409;DHT22;8463;48.094;7.970;2024-03-22T05:17:16;11.30;1.00
2409;DHT22;8463;48.094;7.970;2024-03-22T05:19:41;11.30;1.00
2409;DHT22;8463;48.094;7.970;2024-03-22T05:22:07;11.30;1.00
2409;DHT22;8463;48.094;7.970;2024-03-22T05:24:32;11.20;1.00
2409;DHT22;8463;48.094;7.970;2024-03-22T05:26:58;11.20;1.00
2409;DHT22;8463;48.094;7.970;2024-03-22T05:29:25;11.20;1.00
2409;DHT22;8463;48.094;7.970;2024-03-22T05:31:50;11.20;1.00
2409;DHT22;8463;48.094;7.970;2024-03-22T05:34:17;11.20;1.00
2409;DHT22;8463;48.094;7.970;2024-03-22T05:36:44;11.20;1.00
2409;DHT22;8463;48.094;7.970;2024-03-22T05:39:10;11.30;1.00
2409;DHT22;8463;48.094;7.970;2024-03-22T05:41:36;11.30;1.00
2409;DHT22;8463;48.094;7.970;2024-03-22T05:44:02;11.20;1.00
2409;DHT22;8463;48.094;7.970;2024-03-22T05:46:29;11.20;1.00
2409;DHT22;8463;48.094;7.970;2024-03-22T05:48:54;11.30;1.00
2409;DHT22;8463;48.094;7.970;2024-03-22T05:51:20;11.30;1.00
2409;DHT22;8463;48.094;7.970;2024-03-22T05:53:46;11.30;1.00
2409;DHT22;8463;48.094;7.970;2024-03-22T05:56:11;11.30;1.00
2409;DHT22;8463;48.094;7.970;2024-03-22T05:58:37;11.30;1.00
2409;DHT22;8463;48.094;7.970;2024-03-22T06:01:03;11.30;1.00
2409;DHT22;8463;48.094;7.970;2024-03-22T06:03:29;11.30;1.00
2409;DHT22;8463;48.094;7.970;2024-03-22T06:05:55;11.30;1.00
2409;DHT22;8463;48.094;7.970;2024-03-22T06:08:25;11.30;1.00
2409;DHT22;8463;48.094;7.970;2024-03-22T06:10:52;11.10;1.00
2409;DHT22;8463;48.094;7.970;2024-03-22T06:13:17;11.40;1.00
2409;DHT22;8463;48.094;7.970;2024-03-22T06:15:43;11.30;1.00
2409;DHT22;8463;48.094;7.970;2024-03-22T06:18:12;11.30;1.00
2409;DHT22;8463;48.094;7.970;2024-03-22T06:20:37;11.30;1.00
2409;DHT22;8463;48.094;7.970;2024-03-22T06:23:05;11.20;1.00
2409;DHT22;8463;48.094;7.970;2024-03-22T06:25:31;11.20;1.00
2409;DHT22;8463;48.094;7.970;2024-03-22T06:27:57;11.10;1.00
2409;DHT22;8463;48.094;7.970;2024-03-22T06:30:22;11.10;1.00
2409;DHT22;8463;48.094;7.970;2024-03-22T06:32:48;11.10;1.00
2409;DHT22;8463;48.094;7.970;2024-03-22T06:35:14;11.10;1.00
2409;DHT22;8463;48.094;7.970;2024-03-22T06:37:40;11.20;1.00
2409;DHT22;8463;48.094;7.970;2024-03-22T06:40:07;11.20;1.00
2409;DHT22;8463;48.094;7.970;2024-03-22T06:42:33;11.30;1.00
2409;DHT22;8463;48.094;7.970;2024-03-22T06:44:58;11.30;1.00
2409;DHT22;8463;48.094;7.970;2024-03-22T06:47:24;11.30;1.00
2409;DHT22;8463;48.094;7.970;2024-03-22T06:49:49;11.40;1.00
2409;DHT22;8463;48.094;7.970;2024-03-22T06:52:15;11.50;1.00
2409;DHT22;8463;48.094;7.970;2024-03-22T06:54:41;11.50;1.00
2409;DHT22;8463;48.094;7.970;2024-03-22T06:57:07;11.60;1.00
2409;DHT22;8463;48.094;7.970;2024-03-22T06:59:32;11.70;1.00
2409;DHT22;8463;48.094;7.970;2024-03-22T07:01:58;11.80;1.00
2409;DHT22;8463;48.094;7.970;2024-03-22T07:04:24;12.00;1.00
2409;DHT22;8463;48.094;7.970;2024-03-22T07:06:49;12.10;1.00
2409;DHT22;8463;48.094;7.970;2024-03-22T07:09:15;12.40;1.00
2409;DHT22;8463;48.094;7.970;2024-03-22T07:11:41;12.50;1.00
2409;DHT22;8463;48.094;7.970;2024-03-22T07:14:06;12.40;1.00
2409;DHT22;8463;48.094;7.970;2024-03-22T07:16:32;12.40;1.00
2409;DHT22;8463;48.094;7.970;2024-03-22T07:18:58;12.50;1.00
2409;DHT22;8463;48.094;7.970;2024-03-22T07:21:23;12.60;1.00
2409;DHT22;8463;48.094;7.970;2024-03-22T07:23:50;12.80;1.00
2409;DHT22;8463;48.094;7.970;2024-03-22T07:26:16;12.90;1.00
2409;DHT22;8463;48.094;7.970;2024-03-22T07:28:41;13.20;1.00
2409;DHT22;8463;48.094;7.970;2024-03-22T07:31:07;13.50;1.00
2409;DHT22;8463;48.094;7.970;2024-03-22T07:33:33;13.60;1.00
2409;DHT22;8463;48.094;7.970;2024-03-22T07:36:05;13.80;1.00
2409;DHT22;8463;48.094;7.970;2024-03-22T07:38:31;14.00;1.00
2409;DHT22;8463;48.094;7.970;2024-03-22T07:40:57;14.30;1.00
2409;DHT22;8463;48.094;7.970;2024-03-22T07:43:23;14.50;1.00
2409;DHT22;8463;48.094;7.970;2024-03-22T07:45:48;14.70;1.00
2409;DHT22;8463;48.094;7.970;2024-03-22T07:48:14;14.80;1.00
2409;DHT22;8463;48.094;7.970;2024-03-22T07:50:40;14.90;1.00
2409;DHT22;8463;48.094;7.970;2024-03-22T07:53:06;15.10;1.00
2409;DHT22;8463;48.094;7.970;2024-03-22T07:55:31;15.20;1.00
2409;DHT22;8463;48.094;7.970;2024-03-22T07:57:57;15.40;1.00
2409;DHT22;8463;48.094;7.970;2024-03-22T08:00:23;15.50;1.00
2409;DHT22;8463;48.094;7.970;2024-03-22T08:02:51;15.70;1.00
2409;DHT22;8463;48.094;7.970;2024-03-22T08:05:16;15.80;1.00
2409;DHT22;8463;48.094;7.970;2024-03-22T08:07:42;16.00;1.00
2409;DHT22;8463;48.094;7.970;2024-03-22T08:10:09;15.30;1.00
2409;DHT22;8463;48.094;7.970;2024-03-22T08:12:35;15.10;1.00
2409;DHT22;8463;48.094;7.970;2024-03-22T08:15:01;15.00;1.00
2409;DHT22;8463;48.094;7.970;2024-03-22T08:17:29;15.20;1.00
2409;DHT22;8463;48.094;7.970;2024-03-22T08:19:55;15.50;1.00
2409;DHT22;8463;48.094;7.970;2024-03-22T08:22:20;15.80;1.00
2409;DHT22;8463;48.094;7.970;2024-03-22T08:24:46;16.00;1.00
2409;DHT22;8463;48.094;7.970;2024-03-22T08:27:12;16.30;1.00
2409;DHT22;8463;48.094;7.970;2024-03-22T08:29:39;16.50;1.00
2409;DHT22;8463;48.094;7.970;2024-03-22T08:32:05;16.80;1.00
2409;DHT22;8463;48.094;7.970;2024-03-22T08:34:31;16.90;1.00
2409;DHT22;8463;48.094;7.970;2024-03-22T08:36:59;16.90;1.00
2409;DHT22;8463;48.094;7.970;2024-03-22T08:39:25;16.90;1.00
2409;DHT22;8463;48.094;7.970;2024-03-22T08:41:54;16.90;1.00
2409;DHT22;8463;48.094;7.970;2024-03-22T08:44:20;16.90;1.00
2409;DHT22;8463;48.094;7.970;2024-03-22T08:46:46;16.90;1.00
2409;DHT22;8463;48.094;7.970;2024-03-22T08:49:11;16.90;1.00
2409;DHT22;8463;48.094;7.970;2024-03-22T08:51:37;16.80;1.00
2409;DHT22;8463;48.094;7.970;2024-03-22T08:54:03;16.50;1.00
2409;DHT22;8463;48.094;7.970;2024-03-22T08:56:29;16.60;1.00
2409;DHT22;8463;48.094;7.970;2024-03-22T08:58:55;16.80;1.00
2409;DHT22;8463;48.094;7.970;2024-03-22T09:01:21;17.10;1.00
2409;DHT22;8463;48.094;7.970;2024-03-22T09:03:47;17.10;1.00
2409;DHT22;8463;48.094;7.970;2024-03-22T09:06:16;17.10;1.00
2409;DHT22;8463;48.094;7.970;2024-03-22T09:08:42;16.80;1.00
2409;DHT22;8463;48.094;7.970;2024-03-22T09:11:07;16.60;1.00
2409;DHT22;8463;48.094;7.970;2024-03-22T09:13:33;16.60;1.00
2409;DHT22;8463;48.094;7.970;2024-03-22T09:16:01;16.80;1.00
2409;DHT22;8463;48.094;7.970;2024-03-22T09:18:27;17.30;1.00
2409;DHT22;8463;48.094;7.970;2024-03-22T09:20:55;17.50;1.00
2409;DHT22;8463;48.094;7.970;2024-03-22T09:23:22;17.80;1.00
2409;DHT22;8463;48.094;7.970;2024-03-22T09:25:47;18.10;1.00
2409;DHT22;8463;48.094;7.970;2024-03-22T09:28:14;18.40;1.00
2409;DHT22;8463;48.094;7.970;2024-03-22T09:30:42;18.50;1.00
2409;DHT22;8463;48.094;7.970;2024-03-22T09:33:11;18.60;1.00
2409;DHT22;8463;48.094;7.970;2024-03-22T09:35:37;18.30;1.00
2409;DHT22;8463;48.094;7.970;2024-03-22T09:38:02;18.20;1.00
2409;DHT22;8463;48.094;7.970;2024-03-22T09:40:28;18.00;1.00
2409;DHT22;8463;48.094;7.970;2024-03-22T09:43:01;17.90;1.00
2409;DHT22;8463;48.094;7.970;2024-03-22T09:45:28;18.00;1.00
2409;DHT22;8463;48.094;7.970;2024-03-22T09:47:56;17.90;1.00
2409;DHT22;8463;48.094;7.970;2024-03-22T09:50:25;17.60;1.00
2409;DHT22;8463;48.094;7.970;2024-03-22T09:52:52;17.40;1.00
2409;DHT22;8463;48.094;7.970;2024-03-22T09:55:22;17.20;1.00
2409;DHT22;8463;48.094;7.970;2024-03-22T09:57:49;17.30;1.00
2409;DHT22;8463;48.094;7.970;2024-03-22T10:00:19;17.30;1.00
2409;DHT22;8463;48.094;7.970;2024-03-22T10:02:47;17.60;1.00
2409;DHT22;8463;48.094;7.970;2024-03-22T10:05:14;17.60;1.00
2409;DHT22;8463;48.094;7.970;2024-03-22T10:07:40;17.40;1.00
2409;DHT22;8463;48.094;7.970;2024-03-22T10:10:07;17.40;1.00
2409;DHT22;8463;48.094;7.970;2024-03-22T10:12:33;17.50;1.00
2409;DHT22;8463;48.094;7.970;2024-03-22T10:15:01;17.50;1.00
2409;DHT22;8463;48.094;7.970;2024-03-22T10:17:27;17.50;1.00
2409;DHT22;8463;48.094;7.970;2024-03-22T10:19:53;17.60;1.00
2409;DHT22;8463;48.094;7.970;2024-03-22T10:22:19;17.90;1.00
2409;DHT22;8463;48.094;7.970;2024-03-22T10:24:45;17.90;1.00
2409;DHT22;8463;48.094;7.970;2024-03-22T10:27:11;17.70;1.00
2409;DHT22;8463;48.094;7.970;2024-03-22T10:29:37;17.70;1.00
2409;DHT22;8463;48.094;7.970;2024-03-22T10:32:03;17.90;1.00
2409;DHT22;8463;48.094;7.970;2024-03-22T10:34:28;18.00;1.00
2409;DHT22;8463;48.094;7.970;2024-03-22T10:37:01;17.90;1.00
2409;DHT22;8463;48.094;7.970;2024-03-22T10:39:28;18.00;1.00
2409;DHT22;8463;48.094;7.970;2024-03-22T10:41:54;18.20;1.00
2409;DHT22;8463;48.094;7.970;2024-03-22T10:44:19;18.30;1.00
2409;DHT22;8463;48.094;7.970;2024-03-22T10:46:46;18.40;1.00
2409;DHT22;8463;48.094;7.970;2024-03-22T10:49:16;18.70;1.00
2409;DHT22;8463;48.094;7.970;2024-03-22T10:51:45;18.60;1.00
2409;DHT22;8463;48.094;7.970;2024-03-22T10:54:13;18.60;1.00
2409;DHT22;8463;48.094;7.970;2024-03-22T10:56:41;18.70;1.00
2409;DHT22;8463;48.094;7.970;2024-03-22T10:59:07;18.90;1.00
2409;DHT22;8463;48.094;7.970;2024-03-22T11:01:32;19.00;1.00
2409;DHT22;8463;48.094;7.970;2024-03-22T11:04:08;19.30;1.00
2409;DHT22;8463;48.094;7.970;2024-03-22T11:06:37;19.40;1.00
2409;DHT22;8463;48.094;7.970;2024-03-22T11:09:03;19.30;1.00
2409;DHT22;8463;48.094;7.970;2024-03-22T11:11:35;19.30;1.00
2409;DHT22;8463;48.094;7.970;2024-03-22T11:14:04;19.20;1.00
2409;DHT22;8463;48.094;7.970;2024-03-22T11:16:30;19.20;1.00
2409;DHT22;8463;48.094;7.970;2024-03-22T11:18:56;19.30;1.00
2409;DHT22;8463;48.094;7.970;2024-03-22T11:21:21;19.60;1.00
2409;DHT22;8463;48.094;7.970;2024-03-22T11:23:47;19.70;1.00
2409;DHT22;8463;48.094;7.970;2024-03-22T11:26:13;19.70;1.00
2409;DHT22;8463;48.094;7.970;2024-03-22T11:28:39;19.70;1.00
2409;DHT22;8463;48.094;7.970;2024-03-22T11:31:05;19.70;1.00
2409;DHT22;8463;48.094;7.970;2024-03-22T11:33:31;19.50;1.00
2409;DHT22;8463;48.094;7.970;2024-03-22T11:36:01;19.60;1.00
2409;DHT22;8463;48.094;7.970;2024-03-22T11:38:27;19.30;1.00
2409;DHT22;8463;48.094;7.970;2024-03-22T11:40:57;19.50;1.00
2409;DHT22;8463;48.094;7.970;2024-03-22T11:43:23;20.00;1.00
2409;DHT22;8463;48.094;7.970;2024-03-22T11:45:51;20.00;1.00
2409;DHT22;8463;48.094;7.970;2024-03-22T11:48:17;20.00;1.00
2409;DHT22;8463;48.094;7.970;2024-03-22T11:50:43;20.20;1.00
2409;DHT22;8463;48.094;7.970;2024-03-22T11:53:08;20.30;1.00
2409;DHT22;8463;48.094;7.970;2024-03-22T11:55:36;19.90;1.00
2409;DHT22;8463;48.094;7.970;2024-03-22T11:58:05;19.80;1.00
2409;DHT22;8463;48.094;7.970;2024-03-22T12:00:30;19.70;1.00
2409;DHT22;8463;48.094;7.970;2024-03-22T12:02:56;19.80;1.00
2409;DHT22;8463;48.094;7.970;2024-03-22T12:05:22;20.00;1.00
2409;DHT22;8463;48.094;7.970;2024-03-22T12:07:48;20.10;1.00
2409;DHT22;8463;48.094;7.970;2024-03-22T12:10:14;20.10;1.00
2409;DHT22;8463;48.094;7.970;2024-03-22T12:12:39;19.90;1.00
2409;DHT22;8463;48.094;7.970;2024-03-22T12:15:05;19.80;1.00
2409;DHT22;8463;48.094;7.970;2024-03-22T12:17:31;19.80;1.00
2409;DHT22;8463;48.094;7.970;2024-03-22T12:19:57;19.80;1.00
2409;DHT22;8463;48.094;7.970;2024-03-22T12:22:23;19.50;1.00
2409;DHT22;8463;48.094;7.970;2024-03-22T12:24:51;19.60;1.00
2409;DHT22;8463;48.094;7.970;2024-03-22T12:27:16;19.80;1.00
2409;DHT22;8463;48.094;7.970;2024-03-22T12:29:42;19.70;1.00
2409;DHT22;8463;48.094;7.970;2024-03-22T12:32:10;19.80;1.00
2409;DHT22;8463;48.094;7.970;2024-03-22T12:34:36;19.70;1.00
2409;DHT22;8463;48.094;7.970;2024-03-22T12:37:02;19.60;1.00
2409;DHT22;8463;48.094;7.970;2024-03-22T12:39:28;19.70;1.00
2409;DHT22;8463;48.094;7.970;2024-03-22T12:41:54;20.10;1.00
2409;DHT22;8463;48.094;7.970;2024-03-22T12:44:20;20.30;1.00
2409;DHT22;8463;48.094;7.970;2024-03-22T12:46:46;20.70;1.00
2409;DHT22;8463;48.094;7.970;2024-03-22T12:49:12;20.90;1.00
2409;DHT22;8463;48.094;7.970;2024-03-22T12:51:38;21.20;1.00
2409;DHT22;8463;48.094;7.970;2024-03-22T12:54:04;20.80;1.00
2409;DHT22;8463;48.094;7.970;2024-03-22T12:56:32;21.60;1.00
2409;DHT22;8463;48.094;7.970;2024-03-22T12:58:59;21.80;1.00
2409;DHT22;8463;48.094;7.970;2024-03-22T13:01:24;21.90;1.00
2409;DHT22;8463;48.094;7.970;2024-03-22T13:03:50;22.20;1.00
2409;DHT22;8463;48.094;7.970;2024-03-22T13:06:16;21.90;1.00
2409;DHT22;8463;48.094;7.970;2024-03-22T13:08:41;21.70;1.00
2409;DHT22;8463;48.094;7.970;2024-03-22T13:11:07;21.80;1.00
2409;DHT22;8463;48.094;7.970;2024-03-22T13:13:37;21.80;1.00
2409;DHT22;8463;48.094;7.970;2024-03-22T13:16:04;21.70;1.00
2409;DHT22;8463;48.094;7.970;2024-03-22T13:18:30;21.70;1.00
2409;DHT22;8463;48.094;7.970;2024-03-22T13:20:55;21.60;1.00
2409;DHT22;8463;48.094;7.970;2024-03-22T13:23:21;21.50;1.00
2409;DHT22;8463;48.094;7.970;2024-03-22T13:25:47;21.30;1.00
2409;DHT22;8463;48.094;7.970;2024-03-22T13:28:12;21.30;1.00
2409;DHT22;8463;48.094;7.970;2024-03-22T13:30:38;20.90;1.00
2409;DHT22;8463;48.094;7.970;2024-03-22T13:33:04;20.80;1.00
2409;DHT22;8463;48.094;7.970;2024-03-22T13:35:30;20.80;1.00
2409;DHT22;8463;48.094;7.970;2024-03-22T13:37:56;20.70;1.00
2409;DHT22;8463;48.094;7.970;2024-03-22T13:40:21;20.90;1.00
2409;DHT22;8463;48.094;7.970;2024-03-22T13:42:47;20.80;1.00
2409;DHT22;8463;48.094;7.970;2024-03-22T13:45:13;21.00;1.00
2409;DHT22;8463;48.094;7.970;2024-03-22T13:47:38;21.40;1.00
2409;DHT22;8463;48.094;7.970;2024-03-22T13:50:07;21.70;1.00
2409;DHT22;8463;48.094;7.970;2024-03-22T13:52:34;21.80;1.00
2409;DHT22;8463;48.094;7.970;2024-03-22T13:55:01;21.40;1.00
2409;DHT22;8463;48.094;7.970;2024-03-22T13:57:27;21.40;1.00
2409;DHT22;8463;48.094;7.970;2024-03-22T13:59:53;21.40;1.00
2409;DHT22;8463;48.094;7.970;2024-03-22T14:02:19;21.10;1.00
2409;DHT22;8463;48.094;7.970;2024-03-22T14:07:11;20.60;1.00
2409;DHT22;8463;48.094;7.970;2024-03-22T14:09:37;20.50;1.00
2409;DHT22;8463;48.094;7.970;2024-03-22T14:12:03;20.50;1.00
2409;DHT22;8463;48.094;7.970;2024-03-22T14:14:29;20.70;1.00
2409;DHT22;8463;48.094;7.970;2024-03-22T14:16:55;21.00;1.00
2409;DHT22;8463;48.094;7.970;2024-03-22T14:19:21;21.30;1.00
2409;DHT22;8463;48.094;7.970;2024-03-22T14:21:46;21.40;1.00
2409;DHT22;8463;48.094;7.970;2024-03-22T14:24:15;21.10;1.00
2409;DHT22;8463;48.094;7.970;2024-03-22T14:26:44;20.90;1.00
2409;DHT22;8463;48.094;7.970;2024-03-22T14:29:10;20.70;1.00
2409;DHT22;8463;48.094;7.970;2024-03-22T14:31:38;20.70;1.00
2409;DHT22;8463;48.094;7.970;2024-03-22T14:34:07;20.60;1.00
2409;DHT22;8463;48.094;7.970;2024-03-22T14:36:33;20.50;1.00
2409;DHT22;8463;48.094;7.970;2024-03-22T14:39:00;20.40;1.00
2409;DHT22;8463;48.094;7.970;2024-03-22T14:41:27;20.20;1.00
2409;DHT22;8463;48.094;7.970;2024-03-22T14:43:52;20.10;1.00
2409;DHT22;8463;48.094;7.970;2024-03-22T14:46:20;20.10;1.00
2409;DHT22;8463;48.094;7.970;2024-03-22T14:48:50;20.10;1.00
2409;DHT22;8463;48.094;7.970;2024-03-22T14:51:15;20.10;1.00
2409;DHT22;8463;48.094;7.970;2024-03-22T14:53:41;20.10;1.00
2409;DHT22;8463;48.094;7.970;2024-03-22T14:56:07;20.20;1.00
2409;DHT22;8463;48.094;7.970;2024-03-22T14:58:36;20.20;1.00
2409;DHT22;8463;48.094;7.970;2024-03-22T15:01:04;20.30;1.00
2409;DHT22;8463;48.094;7.970;2024-03-22T15:03:34;20.30;1.00
2409;DHT22;8463;48.094;7.970;2024-03-22T15:06:00;20.30;1.00
2409;DHT22;8463;48.094;7.970;2024-03-22T15:08:26;20.20;1.00
2409;DHT22;8463;48.094;7.970;2024-03-22T15:10:53;20.20;1.00
2409;DHT22;8463;48.094;7.970;2024-03-22T15:13:19;20.10;1.00
2409;DHT22;8463;48.094;7.970;2024-03-22T15:15:56;20.10;1.00
2409;DHT22;8463;48.094;7.970;2024-03-22T15:18:22;20.00;1.00
2409;DHT22;8463;48.094;7.970;2024-03-22T15:20:48;20.00;1.00
2409;DHT22;8463;48.094;7.970;2024-03-22T15:23:14;20.00;1.00
2409;DHT22;8463;48.094;7.970;2024-03-22T15:25:41;20.00;1.00
2409;DHT22;8463;48.094;7.970;2024-03-22T15:28:07;20.00;1.00
2409;DHT22;8463;48.094;7.970;2024-03-22T15:30:33;20.00;1.00
2409;DHT22;8463;48.094;7.970;2024-03-22T15:33:02;20.00;1.00
2409;DHT22;8463;48.094;7.970;2024-03-22T15:35:31;20.00;1.00
2409;DHT22;8463;48.094;7.970;2024-03-22T15:40:23;17.10;1.00
2409;DHT22;8463;48.094;7.970;2024-03-22T15:42:49;20.20;1.00
2409;DHT22;8463;48.094;7.970;2024-03-22T15:45:15;20.10;1.00
2409;DHT22;8463;48.094;7.970;2024-03-22T15:47:40;20.00;1.00
2409;DHT22;8463;48.094;7.970;2024-03-22T15:50:07;19.90;1.00
2409;DHT22;8463;48.094;7.970;2024-03-22T15:52:32;19.90;1.00
2409;DHT22;8463;48.094;7.970;2024-03-22T15:54:59;19.80;1.00
2409;DHT22;8463;48.094;7.970;2024-03-22T15:57:25;19.70;1.00
2409;DHT22;8463;48.094;7.970;2024-03-22T15:59:51;19.70;1.00
2409;DHT22;8463;48.094;7.970;2024-03-22T16:02:17;19.70;1.00
2409;DHT22;8463;48.094;7.970;2024-03-22T16:04:42;19.60;1.00
2409;DHT22;8463;48.094;7.970;2024-03-22T16:07:08;19.60;1.00
2409;DHT22;8463;48.094;7.970;2024-03-22T16:09:37;19.70;1.00
2409;DHT22;8463;48.094;7.970;2024-03-22T16:12:06;19.90;1.00
2409;DHT22;8463;48.094;7.970;2024-03-22T16:14:32;20.10;1.00
2409;DHT22;8463;48.094;7.970;2024-03-22T16:17:03;20.40;1.00